createdAt,value
2023-05-05T00:00:00.915Z,2002.00
2023-05-05T00:01:00.947Z,1993.00
2023-05-05T00:02:00.962Z,1985.00
2023-05-05T00:03:01.007Z,1987.00
2023-05-05T00:04:00.986Z,1989.00
2023-05-05T00:05:00.900Z,1990.00
2023-05-05T00:06:00.902Z,1991.00
2023-05-05T00:07:00.887Z,1988.00
2023-05-05T00:08:00.896Z,1997.00
2023-05-05T00:09:00.873Z,1986.00
2023-05-05T00:10:00.868Z,1984.00
2023-05-05T00:11:00.900Z,1997.00
2023-05-05T00:12:00.942Z,1980.00
2023-05-05T00:13:00.983Z,1984.00
2023-05-05T00:14:01.033Z,1979.00
2023-05-05T00:15:01.147Z,1976.00
2023-05-05T00:16:01.196Z,1988.00
2023-05-05T00:17:01.291Z,1965.00
2023-05-05T00:18:01.294Z,1965.00
2023-05-05T00:19:01.321Z,1973.00
2023-05-05T00:20:01.423Z,1976.00
2023-05-05T00:21:02.968Z,1961.00
2023-05-05T00:22:01.534Z,1956.00
2023-05-05T00:23:01.554Z,1973.00
2023-05-05T00:24:01.602Z,1964.00
2023-05-05T00:25:01.651Z,1967.00
2023-05-05T00:26:01.729Z,1972.00
2023-05-05T00:27:01.769Z,1953.00
2023-05-05T00:28:01.859Z,1953.00
2023-05-05T00:29:01.879Z,1955.00
2023-05-05T00:30:01.965Z,1957.00
2023-05-05T00:31:02.251Z,1941.00
2023-05-05T00:32:02.077Z,1947.00
2023-05-05T00:33:02.211Z,1953.00
2023-05-05T00:34:02.213Z,1951.00
2023-05-05T00:35:02.318Z,1951.00
2023-05-05T00:36:02.344Z,1955.00
2023-05-05T00:37:02.405Z,1950.00
2023-05-05T00:38:02.590Z,1935.00
2023-05-05T00:39:02.491Z,1938.00
2023-05-05T00:40:02.566Z,1947.00
2023-05-05T00:41:02.675Z,1936.00
2023-05-05T00:42:02.682Z,1927.00
2023-05-05T00:43:02.881Z,1945.00
2023-05-05T00:44:02.798Z,1933.00
2023-05-05T00:45:02.889Z,1938.00
2023-05-05T00:46:02.984Z,1924.00
2023-05-05T00:47:02.968Z,1927.00
2023-05-05T00:48:03.154Z,1916.00
2023-05-05T00:49:03.219Z,1934.00
2023-05-05T00:50:03.150Z,1926.00
2023-05-05T00:51:03.243Z,1920.00
2023-05-05T00:52:03.403Z,1916.00
2023-05-05T00:53:03.358Z,1923.00
2023-05-05T00:54:03.393Z,1915.00
2023-05-05T00:55:03.465Z,1924.00
2023-05-05T00:56:03.544Z,1908.00
2023-05-05T00:57:03.612Z,1915.00
2023-05-05T00:58:03.709Z,1912.00
2023-05-05T00:59:03.727Z,1895.00
2023-05-05T01:00:03.783Z,1903.00
2023-05-05T01:01:03.853Z,1902.00
2023-05-05T01:02:03.908Z,1908.00
2023-05-05T01:03:04.035Z,1902.00
2023-05-05T01:04:04.084Z,1895.00
2023-05-05T01:05:04.037Z,1902.00
2023-05-05T01:06:04.071Z,1911.00
2023-05-05T01:07:04.133Z,1885.00
2023-05-05T01:08:04.204Z,1895.00
2023-05-05T01:09:04.269Z,1893.00
2023-05-05T01:10:18.186Z,1882.00
2023-05-05T01:11:05.308Z,1883.00
2023-05-05T01:12:04.275Z,1886.00
2023-05-05T01:13:04.338Z,1889.00
2023-05-05T01:14:04.272Z,1898.00
2023-05-05T01:15:04.272Z,1902.00
2023-05-05T01:16:04.293Z,1897.00
2023-05-05T01:17:04.306Z,1903.00
2023-05-05T01:18:04.286Z,1891.00
2023-05-05T01:19:04.341Z,1886.00
2023-05-05T01:20:04.391Z,1873.00
2023-05-05T01:21:06.002Z,1873.00
2023-05-05T01:22:04.463Z,1882.00
2023-05-05T01:23:04.540Z,1886.00
2023-05-05T01:24:04.690Z,1885.00
2023-05-05T01:25:04.661Z,1880.00
2023-05-05T01:26:04.730Z,1881.00
2023-05-05T01:27:04.814Z,1869.00
2023-05-05T01:28:04.830Z,1880.00
2023-05-05T01:29:04.861Z,1855.00
2023-05-05T01:30:04.941Z,1867.00
2023-05-05T01:31:04.976Z,1867.00
2023-05-05T01:32:04.990Z,1870.00
2023-05-05T01:33:05.098Z,1871.00
2023-05-05T01:34:05.123Z,1875.00
2023-05-05T01:35:05.154Z,1861.00
2023-05-05T01:36:05.204Z,1871.00
2023-05-05T01:37:05.269Z,1864.00
2023-05-05T01:38:05.282Z,1857.00
2023-05-05T01:39:05.356Z,1856.00
2023-05-05T01:40:05.584Z,1859.00
2023-05-05T01:41:05.451Z,1855.00
2023-05-05T01:42:05.495Z,1848.00
2023-05-05T01:43:05.522Z,1853.00
2023-05-05T01:44:05.536Z,1847.00
2023-05-05T01:45:05.607Z,1851.00
2023-05-05T01:46:05.687Z,1835.00
2023-05-05T01:47:05.685Z,1842.00
2023-05-05T01:48:05.808Z,1831.00
2023-05-05T01:49:05.766Z,1843.00
2023-05-05T01:50:06.116Z,1839.00
2023-05-05T01:51:05.831Z,1832.00
2023-05-05T01:52:05.810Z,1839.00
2023-05-05T01:53:05.853Z,1837.00
2023-05-05T01:54:05.885Z,1825.00
2023-05-05T01:55:05.890Z,1835.00
2023-05-05T01:56:05.936Z,1846.00
2023-05-05T01:57:05.991Z,1825.00
2023-05-05T01:58:05.977Z,1827.00
2023-05-05T01:59:05.983Z,1825.00
2023-05-05T02:00:06.154Z,1828.00
2023-05-05T02:01:09.044Z,1816.00
2023-05-05T02:02:06.117Z,1837.00
2023-05-05T02:03:06.196Z,1821.00
2023-05-05T02:04:06.077Z,1823.00
2023-05-05T02:05:06.085Z,1819.00
2023-05-05T02:06:06.095Z,1816.00
2023-05-05T02:07:06.095Z,1816.00
2023-05-05T02:08:06.073Z,1812.00
2023-05-05T02:09:06.016Z,1806.00
2023-05-05T02:10:06.345Z,1815.00
2023-05-05T02:11:06.033Z,1817.00
2023-05-05T02:12:06.048Z,1795.00
2023-05-05T02:13:06.089Z,1808.00
2023-05-05T02:14:06.003Z,1814.00
2023-05-05T02:15:06.056Z,1802.00
2023-05-05T02:16:06.192Z,1803.00
2023-05-05T02:17:05.993Z,1808.00
2023-05-05T02:18:06.059Z,1806.00
2023-05-05T02:19:06.007Z,1805.00
2023-05-05T02:20:06.140Z,1803.00
2023-05-05T02:21:05.970Z,1781.00
2023-05-05T02:22:06.141Z,1790.00
2023-05-05T02:23:06.057Z,1797.00
2023-05-05T02:24:05.954Z,1796.00
2023-05-05T02:25:05.957Z,1780.00
2023-05-05T02:26:06.166Z,1796.00
2023-05-05T02:27:05.946Z,1788.00
2023-05-05T02:28:05.925Z,1777.00
2023-05-05T02:29:05.904Z,1768.00
2023-05-05T02:30:06.100Z,1783.00
2023-05-05T02:31:05.946Z,1777.00
2023-05-05T02:32:05.903Z,1786.00
2023-05-05T02:33:05.925Z,1775.00
2023-05-05T02:34:05.879Z,1778.00
2023-05-05T02:35:05.906Z,1782.00
2023-05-05T02:36:06.009Z,1764.00
2023-05-05T02:37:05.857Z,1769.00
2023-05-05T02:38:05.844Z,1772.00
2023-05-05T02:39:05.886Z,1757.00
2023-05-05T02:40:06.087Z,1771.00
2023-05-05T02:41:07.547Z,1759.00
2023-05-05T02:42:05.859Z,1762.00
2023-05-05T02:43:05.861Z,1773.00
2023-05-05T02:44:05.842Z,1774.00
2023-05-05T02:45:05.832Z,1755.00
2023-05-05T02:46:05.826Z,1753.00
2023-05-05T02:47:06.055Z,1745.00
2023-05-05T02:48:05.831Z,1756.00
2023-05-05T02:49:05.784Z,1751.00
2023-05-05T02:50:05.873Z,1748.00
2023-05-05T02:51:05.782Z,1751.00
2023-05-05T02:52:05.748Z,1747.00
2023-05-05T02:53:05.810Z,1751.00
2023-05-05T02:54:05.746Z,1727.00
2023-05-05T02:55:05.728Z,1740.00
2023-05-05T02:56:05.751Z,1745.00
2023-05-05T02:57:05.716Z,1742.00
2023-05-05T02:58:05.719Z,1743.00
2023-05-05T02:59:05.713Z,1732.00
2023-05-05T03:00:06.022Z,1734.00
2023-05-05T03:01:05.679Z,1731.00
2023-05-05T03:02:05.699Z,1743.00
2023-05-05T03:03:05.819Z,1726.00
2023-05-05T03:04:05.677Z,1728.00
2023-05-05T03:05:05.685Z,1736.00
2023-05-05T03:06:05.709Z,1729.00
2023-05-05T03:07:05.680Z,1727.00
2023-05-05T03:08:05.726Z,1724.00
2023-05-05T03:09:05.728Z,1730.00
2023-05-05T03:10:05.939Z,1737.00
2023-05-05T03:11:05.648Z,1728.00
2023-05-05T03:12:05.660Z,1722.00
2023-05-05T03:13:05.649Z,1709.00
2023-05-05T03:14:05.598Z,1718.00
2023-05-05T03:15:05.592Z,1728.00
2023-05-05T03:16:05.626Z,1713.00
2023-05-05T03:17:05.595Z,1712.00
2023-05-05T03:18:05.600Z,1715.00
2023-05-05T03:19:05.611Z,1715.00
2023-05-05T03:20:05.629Z,1710.00
2023-05-05T03:21:05.579Z,1706.00
2023-05-05T03:22:05.574Z,1709.00
2023-05-05T03:23:05.567Z,1704.00
2023-05-05T03:24:05.548Z,1708.00
2023-05-05T03:25:05.531Z,1705.00
2023-05-05T03:26:05.526Z,1695.00
2023-05-05T03:27:05.533Z,1691.00
2023-05-05T03:28:05.508Z,1686.00
2023-05-05T03:29:05.517Z,1699.00
2023-05-05T03:30:05.644Z,1685.00
2023-05-05T03:31:05.529Z,1693.00
2023-05-05T03:32:05.588Z,1701.00
2023-05-05T03:33:05.541Z,1680.00
2023-05-05T03:34:05.503Z,1694.00
2023-05-05T03:35:05.494Z,1684.00
2023-05-05T03:36:05.478Z,1685.00
2023-05-05T03:37:05.459Z,1689.00
2023-05-05T03:38:05.478Z,1685.00
2023-05-05T03:39:05.467Z,1683.00
2023-05-05T03:40:05.568Z,1679.00
2023-05-05T03:41:05.473Z,1672.00
2023-05-05T03:42:05.456Z,1677.00
2023-05-05T03:43:05.446Z,1685.00
2023-05-05T03:44:05.454Z,1672.00
2023-05-05T03:45:05.453Z,1671.00
2023-05-05T03:46:05.440Z,1673.00
2023-05-05T03:47:05.415Z,1692.00
2023-05-05T03:48:05.474Z,1674.00
2023-05-05T03:49:05.438Z,1670.00
2023-05-05T03:50:05.580Z,1671.00
2023-05-05T03:51:05.428Z,1671.00
2023-05-05T03:52:05.423Z,1685.00
2023-05-05T03:53:05.424Z,1670.00
2023-05-05T03:54:05.434Z,1659.00
2023-05-05T03:55:05.417Z,1656.00
2023-05-05T03:56:05.427Z,1666.00
2023-05-05T03:57:05.440Z,1662.00
2023-05-05T03:58:05.641Z,1665.00
2023-05-05T03:59:05.520Z,1656.00
2023-05-05T04:00:06.547Z,1659.00
2023-05-05T04:01:05.478Z,1655.00
2023-05-05T04:02:05.466Z,1660.00
2023-05-05T04:03:05.706Z,1646.00
2023-05-05T04:04:05.476Z,1652.00
2023-05-05T04:05:05.405Z,1654.00
2023-05-05T04:06:05.390Z,1653.00
2023-05-05T04:07:05.417Z,1641.00
2023-05-05T04:08:05.415Z,1643.00
2023-05-05T04:09:05.433Z,1639.00
2023-05-05T04:10:05.524Z,1640.00
2023-05-05T04:11:05.415Z,1641.00
2023-05-05T04:12:05.420Z,1647.00
2023-05-05T04:13:05.472Z,1634.00
2023-05-05T04:14:05.480Z,1628.00
2023-05-05T04:15:05.394Z,1651.00
2023-05-05T04:16:05.408Z,1630.00
2023-05-05T04:17:05.429Z,1631.00
2023-05-05T04:18:05.475Z,1636.00
2023-05-05T04:19:05.431Z,1641.00
2023-05-05T04:20:05.541Z,1633.00
2023-05-05T04:21:05.457Z,1620.00
2023-05-05T04:22:05.458Z,1621.00
2023-05-05T04:23:05.769Z,1626.00
2023-05-05T04:24:05.439Z,1621.00
2023-05-05T04:25:05.432Z,1628.00
2023-05-05T04:26:05.451Z,1614.00
2023-05-05T04:27:05.440Z,1621.00
2023-05-05T04:28:05.440Z,1604.00
2023-05-05T04:29:05.451Z,1610.00
2023-05-05T04:30:05.565Z,1609.00
2023-05-05T04:31:05.475Z,1612.00
2023-05-05T04:32:05.475Z,1615.00
2023-05-05T04:33:05.534Z,1604.00
2023-05-05T04:34:05.447Z,1591.00
2023-05-05T04:35:05.456Z,1612.00
2023-05-05T04:36:05.455Z,1610.00
2023-05-05T04:37:05.432Z,1601.00
2023-05-05T04:38:05.489Z,1595.00
2023-05-05T04:39:05.497Z,1595.00
2023-05-05T04:40:05.520Z,1599.00
2023-05-05T04:41:05.601Z,1598.00
2023-05-05T04:42:05.452Z,1595.00
2023-05-05T04:43:05.453Z,1602.00
2023-05-05T04:44:05.435Z,1591.00
2023-05-05T04:45:05.486Z,1600.00
2023-05-05T04:46:05.526Z,1585.00
2023-05-05T04:47:05.441Z,1585.00
2023-05-05T04:48:05.490Z,1578.00
2023-05-05T04:49:05.442Z,1582.00
2023-05-05T04:50:05.458Z,1587.00
2023-05-05T04:51:05.415Z,1575.00
2023-05-05T04:52:05.456Z,1574.00
2023-05-05T04:53:05.413Z,1570.00
2023-05-05T04:54:05.410Z,1576.00
2023-05-05T04:55:05.574Z,1572.00
2023-05-05T04:56:05.433Z,1578.00
2023-05-05T04:57:05.420Z,1574.00
2023-05-05T04:58:05.478Z,1585.00
2023-05-05T04:59:05.394Z,1579.00
2023-05-05T05:00:05.616Z,1572.00
2023-05-05T05:01:05.432Z,1578.00
2023-05-05T05:02:05.467Z,1575.00
2023-05-05T05:03:05.475Z,1573.00
2023-05-05T05:04:05.433Z,1561.00
2023-05-05T05:05:05.413Z,1555.00
2023-05-05T05:06:05.428Z,1576.00
2023-05-05T05:07:05.408Z,1560.00
2023-05-05T05:08:05.447Z,1562.00
2023-05-05T05:09:05.409Z,1581.00
2023-05-05T05:10:05.591Z,1562.00
2023-05-05T05:11:05.417Z,1545.00
2023-05-05T05:12:05.401Z,1557.00
2023-05-05T05:13:05.457Z,1553.00
2023-05-05T05:14:05.449Z,1558.00
2023-05-05T05:15:05.511Z,1558.00
2023-05-05T05:16:05.417Z,1545.00
2023-05-05T05:17:05.369Z,1555.00
2023-05-05T05:18:05.429Z,1537.00
2023-05-05T05:19:05.388Z,1542.00
2023-05-05T05:20:05.426Z,1532.00
2023-05-05T05:21:05.495Z,1525.00
2023-05-05T05:22:05.439Z,1542.00
2023-05-05T05:23:05.425Z,1533.00
2023-05-05T05:24:05.449Z,1532.00
2023-05-05T05:25:05.425Z,1511.00
2023-05-05T05:26:05.651Z,1509.00
2023-05-05T05:27:08.519Z,1518.00
2023-05-05T05:28:09.466Z,1519.00
2023-05-05T05:29:06.454Z,1520.00
2023-05-05T05:30:05.482Z,1522.00
2023-05-05T05:31:05.604Z,1523.00
2023-05-05T05:32:05.410Z,1522.00
2023-05-05T05:33:05.463Z,1513.00
2023-05-05T05:34:05.641Z,1509.00
2023-05-05T05:35:05.403Z,1513.00
2023-05-05T05:36:07.290Z,1514.00
2023-05-05T05:37:05.489Z,1513.00
2023-05-05T05:38:06.404Z,1515.00
2023-05-05T05:39:05.373Z,1524.00
2023-05-05T05:40:05.527Z,1540.00
2023-05-05T05:41:05.371Z,1527.00
2023-05-05T05:42:05.460Z,1525.00
2023-05-05T05:43:05.366Z,1541.00
2023-05-05T05:44:05.720Z,1569.00
2023-05-05T05:45:05.341Z,1550.00
2023-05-05T05:46:06.946Z,1562.00
2023-05-05T05:47:05.300Z,1564.00
2023-05-05T05:48:06.174Z,1573.00
2023-05-05T05:49:05.356Z,1593.00
2023-05-05T05:50:05.405Z,1635.00
2023-05-05T05:51:05.296Z,1682.00
2023-05-05T05:52:05.300Z,1687.00
2023-05-05T05:53:05.262Z,1705.00
2023-05-05T05:54:05.295Z,1725.00
2023-05-05T05:55:05.249Z,1743.00
2023-05-05T05:56:05.582Z,1761.00
2023-05-05T05:57:05.219Z,1782.00
2023-05-05T05:58:05.386Z,1764.00
2023-05-05T05:59:06.279Z,1787.00
2023-05-05T06:00:05.296Z,1804.00
2023-05-05T06:01:05.223Z,1824.00
2023-05-05T06:02:05.252Z,1832.00
2023-05-05T06:03:05.375Z,1820.00
2023-05-05T06:04:05.647Z,1833.00
2023-05-05T06:05:05.207Z,1842.00
2023-05-05T06:06:05.193Z,1865.00
2023-05-05T06:07:05.153Z,1885.00
2023-05-05T06:08:05.190Z,1874.00
2023-05-05T06:09:05.166Z,1882.00
2023-05-05T06:10:22.873Z,1887.00
2023-05-05T06:11:06.168Z,1889.00
2023-05-05T06:12:05.152Z,1887.00
2023-05-05T06:13:05.328Z,1897.00
2023-05-05T06:14:05.127Z,1880.00
2023-05-05T06:15:05.119Z,1904.00
2023-05-05T06:16:05.261Z,1928.00
2023-05-05T06:17:05.136Z,1927.00
2023-05-05T06:18:05.093Z,1917.00
2023-05-05T06:19:05.160Z,1901.00
2023-05-05T06:20:05.451Z,1907.00
2023-05-05T06:21:05.098Z,1904.00
2023-05-05T06:22:05.159Z,1901.00
2023-05-05T06:23:05.211Z,1905.00
2023-05-05T06:24:05.282Z,1925.00
2023-05-05T06:25:05.286Z,1904.00
2023-05-05T06:26:05.408Z,1907.00
2023-05-05T06:27:05.458Z,1920.00
2023-05-05T06:28:05.460Z,1929.00
2023-05-05T06:29:05.477Z,1950.00
2023-05-05T06:30:05.639Z,1952.00
2023-05-05T06:31:05.585Z,1956.00
2023-05-05T06:32:05.608Z,1963.00
2023-05-05T06:33:05.726Z,1980.00
2023-05-05T06:34:06.120Z,1979.00
2023-05-05T06:35:05.800Z,1965.00
2023-05-05T06:36:05.785Z,1934.00
2023-05-05T06:37:08.077Z,1906.00
2023-05-05T06:38:05.714Z,1897.00
2023-05-05T06:39:05.708Z,1882.00
2023-05-05T06:40:05.858Z,1886.00
2023-05-05T06:41:05.774Z,1879.00
2023-05-05T06:42:05.791Z,1883.00
2023-05-05T06:43:05.902Z,1881.00
2023-05-05T06:44:06.150Z,1869.00
2023-05-05T06:45:05.951Z,1842.00
2023-05-05T06:46:05.900Z,1847.00
2023-05-05T06:47:06.204Z,1865.00
2023-05-05T06:48:06.026Z,1875.00
2023-05-05T06:49:06.008Z,1868.00
2023-05-05T06:50:06.192Z,1870.00
2023-05-05T06:51:06.080Z,1854.00
2023-05-05T06:52:06.119Z,1859.00
2023-05-05T06:53:06.197Z,1871.00
2023-05-05T06:54:06.664Z,1896.00
2023-05-05T06:55:06.216Z,1850.00
2023-05-05T06:56:07.232Z,1829.00
2023-05-05T06:57:06.274Z,1788.00
2023-05-05T06:58:06.298Z,1716.00
2023-05-05T06:59:06.304Z,1709.00
2023-05-05T07:00:07.567Z,1669.00
2023-05-05T07:01:07.222Z,1582.00
2023-05-05T07:02:06.323Z,1525.00
2023-05-05T07:03:06.392Z,1617.00
2023-05-05T07:04:06.429Z,1569.00
2023-05-05T07:05:07.152Z,1500.00
2023-05-05T07:06:06.442Z,1420.00
2023-05-05T07:07:06.431Z,1440.00
2023-05-05T07:08:06.444Z,1440.00
2023-05-05T07:09:06.749Z,1388.00
2023-05-05T07:10:06.755Z,1362.00
2023-05-05T07:11:06.491Z,1356.00
2023-05-05T07:12:06.674Z,1401.00
2023-05-05T07:13:06.533Z,1309.00
2023-05-05T07:14:06.677Z,1309.00
2023-05-05T07:15:19.085Z,1332.00
2023-05-05T07:16:07.564Z,1335.00
2023-05-05T07:17:06.572Z,1343.00
2023-05-05T07:18:06.655Z,1297.00
2023-05-05T07:19:06.542Z,1389.00
2023-05-05T07:20:06.705Z,1494.00
2023-05-05T07:21:06.524Z,1545.00
2023-05-05T07:22:06.554Z,1475.00
2023-05-05T07:23:06.496Z,1326.00
2023-05-05T07:24:06.639Z,1299.00
2023-05-05T07:25:06.539Z,1279.00
2023-05-05T07:26:06.497Z,1284.00
2023-05-05T07:27:06.470Z,1321.00
2023-05-05T07:28:06.473Z,1409.00
2023-05-05T07:29:07.193Z,1397.00
2023-05-05T07:30:10.915Z,1438.00
2023-05-05T07:31:07.637Z,1443.00
2023-05-05T07:32:06.669Z,1469.00
2023-05-05T07:33:06.824Z,1530.00
2023-05-05T07:34:06.648Z,1615.00
2023-05-05T07:35:06.699Z,1738.00
2023-05-05T07:36:06.667Z,1788.00
2023-05-05T07:37:07.198Z,1809.00
2023-05-05T07:38:07.695Z,1820.00
2023-05-05T07:39:06.706Z,1835.00
2023-05-05T07:40:06.929Z,1830.00
2023-05-05T07:41:06.758Z,1837.00
2023-05-05T07:42:06.711Z,1831.00
2023-05-05T07:43:06.703Z,1846.00
2023-05-05T07:44:06.714Z,1850.00
2023-05-05T07:45:06.790Z,1853.00
2023-05-05T07:46:06.744Z,1858.00
2023-05-05T07:47:06.733Z,1866.00
2023-05-05T07:48:06.821Z,1853.00
2023-05-05T07:49:07.190Z,1865.00
2023-05-05T07:50:07.137Z,1875.00
2023-05-05T07:51:06.717Z,1867.00
2023-05-05T07:52:06.722Z,1906.00
2023-05-05T07:53:14.242Z,1898.00
2023-05-05T07:54:08.151Z,1894.00
2023-05-05T07:55:06.784Z,1874.00
2023-05-05T07:56:06.714Z,1900.00
2023-05-05T07:57:06.891Z,1915.00
2023-05-05T07:58:07.741Z,1927.00
2023-05-05T07:59:07.135Z,1941.00
2023-05-05T08:00:07.003Z,1966.00
2023-05-05T08:01:06.706Z,1970.00
2023-05-05T08:02:07.220Z,1994.00
2023-05-05T08:03:10.636Z,1993.00
2023-05-05T08:04:06.988Z,1995.00
2023-05-05T08:05:07.054Z,1998.00
2023-05-05T08:06:06.685Z,2007.00
2023-05-05T08:07:06.724Z,2026.00
2023-05-05T08:08:08.250Z,2102.00
2023-05-05T08:09:06.654Z,2102.00
2023-05-05T08:10:06.631Z,2098.00
2023-05-05T08:11:06.915Z,2112.00
2023-05-05T08:12:06.641Z,2147.00
2023-05-05T08:13:06.693Z,2199.00
2023-05-05T08:14:06.613Z,2188.00
2023-05-05T08:15:06.976Z,2204.00
2023-05-05T08:16:06.611Z,2223.00
2023-05-05T08:17:06.561Z,2283.00
2023-05-05T08:18:06.671Z,2290.00
2023-05-05T08:19:14.825Z,2300.00
2023-05-05T08:20:07.574Z,2301.00
2023-05-05T08:21:06.591Z,2306.00
2023-05-05T08:22:06.588Z,2311.00
2023-05-05T08:23:07.811Z,2292.00
2023-05-05T08:24:06.727Z,2145.00
2023-05-05T08:25:07.797Z,2184.00
2023-05-05T08:26:06.529Z,2134.00
2023-05-05T08:27:19.692Z,2212.00
2023-05-05T08:28:06.681Z,2216.00
2023-05-05T08:29:06.549Z,2227.00
2023-05-05T08:30:06.501Z,2246.00
2023-05-05T08:31:06.600Z,2290.00
2023-05-05T08:32:06.486Z,2362.00
2023-05-05T08:33:06.600Z,2344.00
2023-05-05T08:34:06.480Z,2259.00
2023-05-05T08:35:06.681Z,2215.00
2023-05-05T08:36:06.559Z,2299.00
2023-05-05T08:37:06.596Z,2404.00
2023-05-05T08:38:07.474Z,2451.00
2023-05-05T08:39:06.470Z,2526.00
2023-05-05T08:40:06.457Z,2570.00
2023-05-05T08:41:06.531Z,2597.00
2023-05-05T08:42:06.415Z,2640.00
2023-05-05T08:43:06.412Z,2634.00
2023-05-05T08:44:06.369Z,2664.00
2023-05-05T08:45:07.392Z,2668.00
2023-05-05T08:46:06.409Z,2709.00
2023-05-05T08:47:06.961Z,2708.00
2023-05-05T08:48:06.879Z,2720.00
2023-05-05T08:49:06.359Z,2740.00
2023-05-05T08:50:06.371Z,2736.00
2023-05-05T08:51:06.359Z,2413.00
2023-05-05T08:52:07.411Z,2339.00
2023-05-05T08:53:06.549Z,2533.00
2023-05-05T08:54:06.702Z,2311.00
2023-05-05T08:55:06.773Z,1966.00
2023-05-05T08:56:06.927Z,1795.00
2023-05-05T08:57:06.773Z,1948.00
2023-05-05T08:58:06.796Z,2007.00
2023-05-05T08:59:06.831Z,2021.00
2023-05-05T09:00:06.827Z,1986.00
2023-05-05T09:01:07.015Z,1727.00
2023-05-05T09:02:06.968Z,1837.00
2023-05-05T09:03:07.324Z,1925.00
2023-05-05T09:04:07.128Z,1933.00
2023-05-05T09:05:07.572Z,2030.00
2023-05-05T09:06:07.176Z,2071.00
2023-05-05T09:07:07.305Z,2005.00
2023-05-05T09:08:07.288Z,2038.00
2023-05-05T09:09:08.063Z,1695.00
2023-05-05T09:10:07.443Z,1716.00
2023-05-05T09:11:07.537Z,1760.00
2023-05-05T09:12:07.739Z,1854.00
2023-05-05T09:13:07.839Z,1740.00
2023-05-05T09:14:07.671Z,1529.00
2023-05-05T09:15:08.029Z,1348.00
2023-05-05T09:16:07.792Z,1343.00
2023-05-05T09:17:07.985Z,1519.00
2023-05-05T09:18:07.972Z,1542.00
2023-05-05T09:19:08.024Z,1582.00
2023-05-05T09:20:09.132Z,1548.00
2023-05-05T09:21:08.093Z,1656.00
2023-05-05T09:22:08.127Z,1681.00
2023-05-05T09:23:08.208Z,1682.00
2023-05-05T09:24:09.131Z,1683.00
2023-05-05T09:25:08.363Z,1643.00
2023-05-05T09:26:08.145Z,1681.00
2023-05-05T09:27:08.151Z,1597.00
2023-05-05T09:28:08.317Z,1696.00
2023-05-05T09:29:09.277Z,1785.00
2023-05-05T09:30:09.153Z,1796.00
2023-05-05T09:31:08.208Z,1874.00
2023-05-05T09:32:08.186Z,1524.00
2023-05-05T09:33:08.776Z,1474.00
2023-05-05T09:34:08.274Z,1376.00
2023-05-05T09:35:08.504Z,1483.00
2023-05-05T09:36:08.428Z,1562.00
2023-05-05T09:37:08.517Z,1575.00
2023-05-05T09:38:08.753Z,1692.00
2023-05-05T09:39:08.616Z,1609.00
2023-05-05T09:40:08.679Z,1278.00
2023-05-05T09:41:08.916Z,956.00
2023-05-05T09:42:08.809Z,926.00
2023-05-05T09:43:09.042Z,1046.00
2023-05-05T09:44:08.923Z,1138.00
2023-05-05T09:45:09.141Z,1155.00
2023-05-05T09:46:09.083Z,1180.00
2023-05-05T09:47:21.991Z,892.00
2023-05-05T09:48:10.086Z,892.00
2023-05-05T09:49:09.094Z,754.00
2023-05-05T09:50:09.278Z,759.00
2023-05-05T09:51:09.046Z,835.00
2023-05-05T09:52:09.023Z,1006.00
2023-05-05T09:53:09.034Z,1081.00
2023-05-05T09:54:09.080Z,1051.00
2023-05-05T09:55:09.013Z,1088.00
2023-05-05T09:56:09.078Z,1213.00
2023-05-05T09:57:09.113Z,917.00
2023-05-05T09:58:09.289Z,876.00
2023-05-05T09:59:09.259Z,915.00
2023-05-05T10:00:09.449Z,891.00
2023-05-05T10:01:09.370Z,735.00
2023-05-05T10:02:09.486Z,882.00
2023-05-05T10:03:09.577Z,844.00
2023-05-05T10:04:09.547Z,696.00
2023-05-05T10:05:09.811Z,812.00
2023-05-05T10:06:09.640Z,684.00
2023-05-05T10:07:09.699Z,793.00
2023-05-05T10:08:09.724Z,961.00
2023-05-05T10:09:09.786Z,1093.00
2023-05-05T10:10:10.209Z,1179.00
2023-05-05T10:11:09.922Z,1082.00
2023-05-05T10:12:09.965Z,1100.00
2023-05-05T10:13:10.058Z,849.00
2023-05-05T10:14:10.117Z,645.00
2023-05-05T10:15:10.177Z,677.00
2023-05-05T10:16:10.254Z,700.00
2023-05-05T10:17:10.285Z,609.00
2023-05-05T10:18:10.435Z,615.00
2023-05-05T10:19:10.411Z,900.00
2023-05-05T10:20:10.825Z,1037.00
2023-05-05T10:21:10.688Z,701.00
2023-05-05T10:22:10.576Z,833.00
2023-05-05T10:23:10.620Z,631.00
2023-05-05T10:24:10.660Z,809.00
2023-05-05T10:25:11.488Z,924.00
2023-05-05T10:26:10.827Z,984.00
2023-05-05T10:27:12.146Z,1084.00
2023-05-05T10:28:11.328Z,1088.00
2023-05-05T10:29:16.806Z,1070.00
2023-05-05T10:30:12.455Z,1086.00
2023-05-05T10:31:24.205Z,1101.00
2023-05-05T10:32:30.211Z,1090.00
2023-05-05T10:33:30.287Z,1090.00
2023-05-05T10:34:12.261Z,1090.00
2023-05-05T10:35:12.702Z,1094.00
2023-05-05T10:36:13.636Z,1086.00
2023-05-05T10:37:10.993Z,1086.00
2023-05-05T10:38:13.911Z,821.00
2023-05-05T10:39:11.937Z,850.00
2023-05-05T10:40:11.093Z,983.00
2023-05-05T10:41:11.749Z,749.00
2023-05-05T10:42:11.292Z,890.00
2023-05-05T10:43:11.210Z,886.00
2023-05-05T10:44:11.032Z,945.00
2023-05-05T10:45:12.161Z,848.00
2023-05-05T10:46:11.564Z,989.00
2023-05-05T10:47:11.224Z,993.00
2023-05-05T10:48:11.050Z,939.00
2023-05-05T10:49:12.933Z,588.00
2023-05-05T10:50:11.215Z,849.00
2023-05-05T10:51:11.136Z,976.00
2023-05-05T10:52:11.677Z,1042.00
2023-05-05T10:53:14.799Z,1039.00
2023-05-05T10:54:11.639Z,1041.00
2023-05-05T10:55:11.347Z,1048.00
2023-05-05T10:56:11.648Z,1071.00
2023-05-05T10:57:11.757Z,1104.00
2023-05-05T10:58:11.253Z,1122.00
2023-05-05T10:59:11.482Z,1046.00
2023-05-05T11:01:30.509Z,500.00
2023-05-05T11:02:30.286Z,500.00
2023-05-05T11:03:30.365Z,500.00
2023-05-05T11:04:30.141Z,500.00
2023-05-05T11:05:30.801Z,500.00
2023-05-05T11:06:30.106Z,500.00
2023-05-05T11:07:30.258Z,507.00
2023-05-05T11:08:31.494Z,502.00
2023-05-05T11:09:30.408Z,532.00
2023-05-05T11:10:31.036Z,515.00
2023-05-05T11:11:30.537Z,516.00
2023-05-05T11:12:30.500Z,521.00
2023-05-05T11:13:30.443Z,522.00
2023-05-05T11:14:31.066Z,517.00
2023-05-05T11:15:30.858Z,517.00
2023-05-05T11:16:30.698Z,500.00
2023-05-05T11:17:30.904Z,501.00
2023-05-05T11:18:30.745Z,508.00
2023-05-05T11:19:30.855Z,521.00
2023-05-05T11:20:31.863Z,522.00
2023-05-05T11:21:30.899Z,507.00
2023-05-05T11:22:30.973Z,500.00
2023-05-05T11:23:31.204Z,500.00
2023-05-05T11:24:31.083Z,500.00
2023-05-05T11:25:31.215Z,500.00
2023-05-05T11:26:31.891Z,497.00
2023-05-05T11:27:31.266Z,521.00
2023-05-05T11:28:32.367Z,518.00
2023-05-05T11:29:31.514Z,513.00
2023-05-05T11:30:31.452Z,500.00
2023-05-05T11:31:31.624Z,542.00
2023-05-05T11:32:31.617Z,538.00
2023-05-05T11:33:31.744Z,400.00
2023-05-05T11:34:31.677Z,400.00
2023-05-05T11:35:31.767Z,400.00
2023-05-05T11:36:31.814Z,400.00
2023-05-05T11:37:31.865Z,400.00
2023-05-05T11:38:31.897Z,400.00
2023-05-05T11:39:31.902Z,513.00
2023-05-05T11:40:31.910Z,720.00
2023-05-05T11:41:31.936Z,989.00
2023-05-05T11:42:32.085Z,872.00
2023-05-05T11:43:31.977Z,1032.00
2023-05-05T11:44:32.004Z,1159.00
2023-05-05T11:45:32.030Z,1244.00
2023-05-05T11:46:32.112Z,1322.00
2023-05-05T11:47:32.279Z,1324.00
2023-05-05T11:48:32.170Z,1361.00
2023-05-05T11:49:32.232Z,1396.00
2023-05-05T11:50:32.316Z,1397.00
2023-05-05T11:51:32.353Z,1454.00
2023-05-05T11:52:32.426Z,1489.00
2023-05-05T11:53:32.497Z,1481.00
2023-05-05T11:54:32.533Z,1518.00
2023-05-05T11:55:32.688Z,1531.00
2023-05-05T11:56:32.667Z,1546.00
2023-05-05T11:57:32.753Z,1587.00
2023-05-05T11:58:32.808Z,1620.00
2023-05-05T11:59:32.843Z,1660.00
2023-05-05T12:00:32.936Z,1679.00
2023-05-05T12:01:32.984Z,1707.00
2023-05-05T12:02:33.113Z,1730.00
2023-05-05T12:03:33.173Z,1774.00
2023-05-05T12:04:33.195Z,1787.00
2023-05-05T12:05:34.863Z,1813.00
2023-05-05T12:06:33.226Z,1827.00
2023-05-05T12:07:33.228Z,1837.00
2023-05-05T12:08:33.217Z,1873.00
2023-05-05T12:09:33.284Z,1878.00